Flight Track Log - Related Links

Times and Time Zones

All times are in EDT time to prevent confusion due to time zone crossing. See the CTL18 flight status page for this flight to view local times or setup timezone preferences in your user account.

Time Position Orientation Groundspeed Altitude Reporting Facility
EDT Latitude Longitude Course Direction KTS MPH feet Rate Location/Type
Wed 10:33:51 PM 41.7828 -82.4125 312° West 174 200 6,000  Level Cleveland Center
Wed 10:34:52 PM 41.8006 -82.4744 291° West 170 196 6,100  Climbing Cleveland Center
Wed 10:35:20 PM 41.8064 -82.4997 287° West 171 197 6,000 -115 Descending Cleveland Center
Wed 10:35:44 PM 41.8142 -82.5250 292° West 171 197 6,000  Level Cleveland Center
Wed 10:36:45 PM 41.8319 -82.5842 292° West 171 197 6,000  Level Cleveland Center
Wed 10:37:46 PM 41.8561 -82.6406 300° West 173 199 6,000  Level Cleveland Center
Wed 10:38:46 PM 41.8928 -82.6808 321° Northwest 163 188 6,000  Level Cleveland Center
Wed 10:39:00 PM 42.1480 -82.6246 312° West  Level Estimated
Wed 10:39:47 PM 41.9317 -82.7156 326° Northwest 167 192 6,000  Level Cleveland Center
Wed 10:40:48 PM 41.9667 -82.7503 324° Northwest 167 192 6,000  Level Cleveland Center
Wed 10:41:48 PM 42.0075 -82.7853 328° Northwest 165 190 6,000  Level Cleveland Center
Wed 10:42:49 PM 42.0444 -82.8200 325° Northwest 166 191 6,000  Level Cleveland Center
Wed 10:43:50 PM 42.0833 -82.8578 324° Northwest 164 189 6,000 -50 Level Cleveland Center
Wed 10:44:50 PM 42.1244 -82.8900 330° Northwest 164 189 5,900  Descending Cleveland Center
Wed 10:45:51 PM 42.1592 -82.9250 323° Northwest 163 188 6,000 49 Climbing Cleveland Center
Wed 10:46:52 PM 42.2000 -82.9600 328° Northwest 163 188 6,000  Level Cleveland Center
Wed 10:47:52 PM 42.2347 -82.9950 323° Northwest 163 188 6,000  Level Cleveland Center
Wed 10:48:53 PM 42.2717 -83.0300 325° Northwest 161 185 6,000  Level Cleveland Center
Wed 10:49:53 PM 42.3144 -83.0656 328° Northwest 162 186 6,000 -50 Level Cleveland Center
Wed 10:50:54 PM 42.3494 -83.0978 326° Northwest 160 184 5,900  Descending Cleveland Center
Wed 10:51:55 PM 42.3861 -83.1358 323° Northwest 159 183 6,000 -347 Climbing Cleveland Center
Wed 10:52:55 PM 42.4247 -83.1739 324° Northwest 185 213 5,200 -893 Descending Cleveland Center
Wed 10:53:56 PM 42.4675 -83.2178 323° Northwest 192 221 4,200 -787 Descending Cleveland Center
Wed 10:54:57 PM 42.5083 -83.2589 323° Northwest 191 220 3,600 -639 Descending Cleveland Center
Wed 10:55:58 PM 42.5489 -83.3031 321° Northwest 182 209 2,900 -595 Descending Cleveland Center
Wed 10:56:58 PM 42.5811 -83.3581 309° West 176 203 2,400 -446 Descending Cleveland Center
Wed 10:57:59 PM 42.6111 -83.4044 311° West 168 193 2,000 -248 Descending Cleveland Center
Wed 10:58:59 PM 42.6308 -83.4506 300° West 130 150 1,900 -100 Descending Cleveland Center
Wed 11:00:00 PM 42.6500 -83.4167 304° West  Level FlightAware Approximate
Wed 11:07:00 PM 42.6656 -83.4205 304° West  Level Estimated
Wed 11:08:00 PM 42.6656 -83.4205 304° West  Level Estimated
Wed 11:09:00 PM 42.6656 -83.4205 304° West  Level Estimated

Login

Don't have an account? Register now (free) for customized features, flight alerts, and more!